createdAt,value
2023-12-13T00:00:44.868Z,8.50
2023-12-13T00:03:11.744Z,8.40
2023-12-13T00:05:38.583Z,8.40
2023-12-13T00:08:08.337Z,8.40
2023-12-13T00:10:35.169Z,8.40
2023-12-13T00:13:03.602Z,8.30
2023-12-13T00:15:30.726Z,8.30
2023-12-13T00:17:57.693Z,8.20
2023-12-13T00:20:24.538Z,8.20
2023-12-13T00:22:51.349Z,8.20
2023-12-13T00:25:18.180Z,8.20
2023-12-13T00:27:45.207Z,8.10
2023-12-13T00:30:12.576Z,8.10
2023-12-13T00:32:39.484Z,8.20
2023-12-13T00:35:07.700Z,8.20
2023-12-13T00:37:34.721Z,8.20
2023-12-13T00:40:01.719Z,8.20
2023-12-13T00:42:28.589Z,8.20
2023-12-13T00:44:55.399Z,8.30
2023-12-13T00:47:22.204Z,8.40
2023-12-13T00:49:49.356Z,8.50
2023-12-13T00:52:16.192Z,8.50
2023-12-13T00:54:43.140Z,8.50
2023-12-13T00:57:10.064Z,8.60
2023-12-13T00:59:36.836Z,8.50
2023-12-13T01:02:05.915Z,8.60
2023-12-13T01:04:35.753Z,8.50
2023-12-13T01:07:02.869Z,8.50
2023-12-13T01:09:29.671Z,8.50
2023-12-13T01:11:56.452Z,8.40
2023-12-13T01:14:23.314Z,8.40
2023-12-13T01:16:50.192Z,8.30
2023-12-13T01:19:17.119Z,8.20
2023-12-13T01:21:44.038Z,8.10
2023-12-13T01:24:10.856Z,8.00
2023-12-13T01:26:37.719Z,8.00
2023-12-13T01:29:04.661Z,7.90
2023-12-13T01:31:31.533Z,7.90
2023-12-13T01:33:58.367Z,7.70
2023-12-13T01:36:25.165Z,7.60
2023-12-13T01:38:51.962Z,7.60
2023-12-13T01:41:18.872Z,7.50
2023-12-13T01:43:45.790Z,7.40
2023-12-13T01:46:18.598Z,7.50
2023-12-13T01:48:46.455Z,7.40
2023-12-13T01:51:13.387Z,7.40
2023-12-13T01:53:41.432Z,7.40
2023-12-13T01:56:09.216Z,7.30
2023-12-13T01:58:39.925Z,7.30
2023-12-13T02:01:08.653Z,7.30
2023-12-13T02:03:37.524Z,7.20
2023-12-13T02:06:05.288Z,7.20
2023-12-13T02:08:32.399Z,7.20
2023-12-13T02:10:59.831Z,7.20
2023-12-13T02:13:27.157Z,7.20
2023-12-13T02:15:54.036Z,7.20
2023-12-13T02:18:21.212Z,7.20
2023-12-13T02:20:51.127Z,7.20
2023-12-13T02:23:17.952Z,7.20
2023-12-13T02:25:57.221Z,7.20
2023-12-13T02:28:28.003Z,7.10
2023-12-13T02:30:56.991Z,7.00
2023-12-13T02:33:28.423Z,7.00
2023-12-13T02:35:58.590Z,7.00
2023-12-13T02:38:25.901Z,7.00
2023-12-13T02:40:54.369Z,7.00
2023-12-13T02:43:21.910Z,6.90
2023-12-13T02:45:48.880Z,6.90
2023-12-13T02:48:15.911Z,6.90
2023-12-13T02:50:43.146Z,7.00
2023-12-13T02:53:10.123Z,7.00
2023-12-13T02:55:37.035Z,7.10
2023-12-13T02:58:05.701Z,7.10
2023-12-13T03:00:32.775Z,7.20
2023-12-13T03:02:59.786Z,7.30
2023-12-13T03:05:26.721Z,7.30
2023-12-13T03:07:53.684Z,7.40
2023-12-13T03:10:21.106Z,7.40
2023-12-13T03:12:48.266Z,7.40
2023-12-13T03:15:15.300Z,7.40
2023-12-13T03:17:42.234Z,7.50
2023-12-13T03:20:10.375Z,7.50
2023-12-13T03:22:37.296Z,7.50
2023-12-13T03:25:04.329Z,7.50
2023-12-13T03:27:31.511Z,7.60
2023-12-13T03:29:58.397Z,7.60
2023-12-13T03:32:25.182Z,7.60
2023-12-13T03:34:52.035Z,7.50
2023-12-13T03:37:18.908Z,7.40
2023-12-13T03:39:45.812Z,7.40
2023-12-13T03:42:12.682Z,7.40
2023-12-13T03:44:39.502Z,7.40
2023-12-13T03:47:06.492Z,7.40
2023-12-13T03:49:33.451Z,7.50
2023-12-13T03:52:00.367Z,7.50
2023-12-13T03:54:27.186Z,7.60
2023-12-13T03:56:53.975Z,7.60
2023-12-13T03:59:20.764Z,7.60
2023-12-13T04:01:47.582Z,7.60
2023-12-13T04:04:14.586Z,7.60
2023-12-13T04:06:41.503Z,7.70
2023-12-13T04:09:08.320Z,7.70
2023-12-13T04:11:35.148Z,7.70
2023-12-13T04:14:01.959Z,7.70
2023-12-13T04:16:28.827Z,7.70
2023-12-13T04:18:55.666Z,7.70
2023-12-13T04:21:22.510Z,7.70
2023-12-13T04:23:49.331Z,7.80
2023-12-13T04:26:16.235Z,7.80
2023-12-13T04:28:43.151Z,7.90
2023-12-13T04:31:10.092Z,7.90
2023-12-13T04:33:37.017Z,8.00
2023-12-13T04:36:05.114Z,8.00
2023-12-13T04:38:31.991Z,8.00
2023-12-13T04:40:58.796Z,8.00
2023-12-13T04:43:26.462Z,8.00
2023-12-13T04:45:53.453Z,8.10
2023-12-13T04:48:20.416Z,8.10
2023-12-13T04:50:47.252Z,8.10
2023-12-13T04:53:14.193Z,8.10
2023-12-13T04:55:41.204Z,8.20
2023-12-13T04:58:08.159Z,8.20
2023-12-13T05:00:35.061Z,8.20
2023-12-13T05:03:01.911Z,8.20
2023-12-13T05:05:28.837Z,8.20
2023-12-13T05:07:55.772Z,8.20
2023-12-13T05:10:22.718Z,8.20
2023-12-13T05:12:49.571Z,8.20
2023-12-13T05:15:16.457Z,8.20
2023-12-13T05:17:43.354Z,8.20
2023-12-13T05:20:11.402Z,8.20
2023-12-13T05:22:41.318Z,8.20
2023-12-13T05:25:09.299Z,8.20
2023-12-13T05:27:36.260Z,8.20
2023-12-13T05:30:03.734Z,8.20
2023-12-13T05:32:30.758Z,8.20
2023-12-13T05:34:57.674Z,8.20
2023-12-13T05:37:24.651Z,8.20
2023-12-13T05:39:51.545Z,8.20
2023-12-13T05:42:18.346Z,8.20
2023-12-13T05:44:47.665Z,8.20
2023-12-13T05:47:15.247Z,8.10
2023-12-13T05:49:42.105Z,8.00
2023-12-13T05:52:09.244Z,8.00
2023-12-13T05:54:36.310Z,8.00
2023-12-13T05:57:03.184Z,8.00
2023-12-13T05:59:30.170Z,8.00
2023-12-13T06:01:57.004Z,8.10
2023-12-13T06:04:24.065Z,8.00
2023-12-13T06:06:51.047Z,8.10
2023-12-13T06:09:18.051Z,8.10
2023-12-13T06:11:45.121Z,8.10
2023-12-13T06:14:12.417Z,8.10
2023-12-13T06:16:39.338Z,8.10
2023-12-13T06:19:07.716Z,8.10
2023-12-13T06:21:34.594Z,8.10
2023-12-13T06:24:03.798Z,8.10
2023-12-13T06:26:30.712Z,8.10
2023-12-13T06:28:57.530Z,8.10
2023-12-13T06:31:24.493Z,8.10
2023-12-13T06:33:51.547Z,8.10
2023-12-13T06:36:18.485Z,8.10
2023-12-13T06:38:47.398Z,8.10
2023-12-13T06:41:14.481Z,8.10
2023-12-13T06:43:41.317Z,8.10
2023-12-13T06:46:08.322Z,8.10
2023-12-13T06:48:35.261Z,8.10
2023-12-13T06:51:02.184Z,8.10
2023-12-13T06:53:29.051Z,8.10
2023-12-13T06:55:56.390Z,8.10
2023-12-13T06:58:23.734Z,8.10
2023-12-13T07:00:50.660Z,8.10
2023-12-13T07:03:17.608Z,8.10
2023-12-13T07:05:44.795Z,8.10
2023-12-13T07:08:11.735Z,8.10
2023-12-13T07:10:38.597Z,8.20
2023-12-13T07:13:05.688Z,8.20
2023-12-13T07:15:32.545Z,8.10
2023-12-13T07:18:00.258Z,8.10
2023-12-13T07:20:27.222Z,8.10
2023-12-13T07:22:54.622Z,8.20
2023-12-13T07:25:21.713Z,8.20
2023-12-13T07:27:48.600Z,8.20
2023-12-13T07:30:15.693Z,8.20
2023-12-13T07:32:43.375Z,8.10
2023-12-13T07:35:10.610Z,8.10
2023-12-13T07:37:37.974Z,8.10
2023-12-13T07:40:07.816Z,8.10
2023-12-13T07:42:35.264Z,8.10
2023-12-13T07:45:02.719Z,8.10
2023-12-13T07:47:29.720Z,8.10
2023-12-13T07:49:56.855Z,8.10
2023-12-13T07:52:23.875Z,8.10
2023-12-13T07:54:50.796Z,8.10
2023-12-13T07:57:17.595Z,8.10
2023-12-13T07:59:44.459Z,8.20
2023-12-13T08:02:11.249Z,8.20
2023-12-13T08:04:38.347Z,8.10
2023-12-13T08:07:05.505Z,8.10
2023-12-13T08:09:32.417Z,8.10
2023-12-13T08:11:59.706Z,8.10
2023-12-13T08:14:31.599Z,8.10
2023-12-13T08:17:00.411Z,8.10
2023-12-13T08:19:28.295Z,8.00
2023-12-13T08:21:55.244Z,8.00
2023-12-13T08:24:22.147Z,7.90
2023-12-13T08:26:49.176Z,7.90
2023-12-13T08:29:16.354Z,7.90
2023-12-13T08:31:43.532Z,7.90
2023-12-13T08:34:10.384Z,7.90
2023-12-13T08:36:37.285Z,8.00
2023-12-13T08:39:04.282Z,8.00
2023-12-13T08:41:31.167Z,8.00
2023-12-13T08:43:58.106Z,8.00
2023-12-13T08:46:25.142Z,8.10
2023-12-13T08:48:52.030Z,8.20
2023-12-13T08:51:18.966Z,8.20
2023-12-13T08:53:45.819Z,8.30
2023-12-13T08:56:12.728Z,8.40
2023-12-13T08:58:39.667Z,8.40
2023-12-13T09:01:06.725Z,8.40
2023-12-13T09:03:33.841Z,8.40
2023-12-13T09:06:01.232Z,8.40
2023-12-13T09:08:28.140Z,8.30
2023-12-13T09:10:56.434Z,8.40
2023-12-13T09:13:23.482Z,8.40
2023-12-13T09:15:50.329Z,8.40
2023-12-13T09:18:17.307Z,8.40
2023-12-13T09:20:44.287Z,8.40
2023-12-13T09:23:23.822Z,8.30
2023-12-13T09:25:51.048Z,8.40
2023-12-13T09:28:18.435Z,8.40
2023-12-13T09:30:46.095Z,8.40
2023-12-13T09:33:13.280Z,8.40
2023-12-13T09:35:40.505Z,8.50
2023-12-13T09:38:07.475Z,8.50
2023-12-13T09:40:34.655Z,8.50
2023-12-13T09:43:02.952Z,8.60
2023-12-13T09:45:31.100Z,8.60
2023-12-13T09:47:58.516Z,8.80
2023-12-13T09:50:26.670Z,8.80
2023-12-13T09:52:55.995Z,8.80
2023-12-13T09:55:22.868Z,8.80
2023-12-13T09:57:49.922Z,8.70
2023-12-13T10:00:17.437Z,8.60
2023-12-13T10:02:46.600Z,8.70
2023-12-13T10:05:16.365Z,8.70
2023-12-13T10:07:43.461Z,8.70
2023-12-13T10:10:10.802Z,8.60
2023-12-13T10:12:41.430Z,8.60
2023-12-13T10:15:13.307Z,8.40
2023-12-13T10:17:42.434Z,8.40
2023-12-13T10:20:12.099Z,8.40
2023-12-13T10:22:40.414Z,8.40
2023-12-13T10:25:07.989Z,8.30
2023-12-13T10:27:35.235Z,8.30
2023-12-13T10:30:03.377Z,8.20
2023-12-13T10:32:30.589Z,8.20
2023-12-13T10:34:57.892Z,8.20
2023-12-13T10:37:28.483Z,8.20
2023-12-13T10:39:58.699Z,8.30
2023-12-13T10:42:26.433Z,8.30
2023-12-13T10:44:54.165Z,8.30
2023-12-13T10:47:28.002Z,8.40
2023-12-13T10:49:57.242Z,8.40
2023-12-13T10:52:27.311Z,8.60
2023-12-13T10:54:54.365Z,8.90
2023-12-13T10:57:21.468Z,9.10
2023-12-13T10:59:50.602Z,9.30
2023-12-13T11:02:20.378Z,9.40
2023-12-13T11:04:48.833Z,9.70
2023-12-13T11:07:21.947Z,10.10
2023-12-13T11:09:55.042Z,10.60
2023-12-13T11:12:22.640Z,12.20
2023-12-13T11:14:51.471Z,12.20
2023-12-13T11:17:20.244Z,11.50
2023-12-13T11:19:47.983Z,11.30
2023-12-13T11:22:14.858Z,11.00
2023-12-13T11:24:42.415Z,10.70
2023-12-13T11:27:14.414Z,10.40
2023-12-13T11:29:46.224Z,10.20
2023-12-13T11:32:13.130Z,10.00
2023-12-13T11:34:48.460Z,10.00
2023-12-13T11:37:16.374Z,10.00
2023-12-13T11:39:44.073Z,10.60
2023-12-13T11:42:12.759Z,11.40
2023-12-13T11:44:40.928Z,12.00
2023-12-13T11:47:12.937Z,11.80
2023-12-13T11:49:41.280Z,11.20
2023-12-13T11:52:08.947Z,10.60
2023-12-13T11:54:39.387Z,10.10
2023-12-13T11:57:14.884Z,9.60
2023-12-13T11:59:42.054Z,9.40
2023-12-13T12:02:09.579Z,9.30
2023-12-13T12:04:36.995Z,9.20
2023-12-13T12:07:14.703Z,9.20
2023-12-13T12:09:42.069Z,9.40
2023-12-13T12:12:12.009Z,9.50
2023-12-13T12:14:45.114Z,9.50
2023-12-13T12:17:12.828Z,9.30
2023-12-13T12:19:41.249Z,9.10
2023-12-13T12:22:08.175Z,9.00
2023-12-13T12:24:38.551Z,8.90
2023-12-13T12:27:12.615Z,8.90
2023-12-13T12:29:40.266Z,8.80
2023-12-13T12:32:09.892Z,8.70
2023-12-13T12:34:38.570Z,8.70
2023-12-13T12:37:05.773Z,8.60
2023-12-13T12:39:34.026Z,8.60
2023-12-13T12:42:01.481Z,8.70
2023-12-13T12:44:28.363Z,8.60
2023-12-13T12:46:55.411Z,8.60
2023-12-13T12:49:22.314Z,8.60
2023-12-13T12:51:49.801Z,8.70
2023-12-13T12:54:17.257Z,8.70
2023-12-13T12:56:44.628Z,8.60
2023-12-13T12:59:15.879Z,8.60
2023-12-13T13:01:46.202Z,8.60
2023-12-13T13:04:15.223Z,8.60
2023-12-13T13:06:47.331Z,8.50
2023-12-13T13:09:14.778Z,8.40
2023-12-13T13:11:42.925Z,8.40
2023-12-13T13:14:10.076Z,8.30
2023-12-13T13:16:38.147Z,8.30
2023-12-13T13:19:06.633Z,8.30
2023-12-13T13:21:36.528Z,8.30
2023-12-13T13:24:06.107Z,8.30
2023-12-13T13:26:36.359Z,8.30
2023-12-13T13:29:03.915Z,8.30
2023-12-13T13:31:31.021Z,8.30
2023-12-13T13:33:58.022Z,8.30
2023-12-13T13:36:25.258Z,8.30
2023-12-13T13:38:52.058Z,8.30
2023-12-13T13:41:19.028Z,8.40
2023-12-13T13:43:46.218Z,8.40
2023-12-13T13:46:13.173Z,8.40
2023-12-13T13:48:40.216Z,8.40
2023-12-13T13:51:07.327Z,8.40
2023-12-13T13:53:34.768Z,8.20
2023-12-13T13:56:03.392Z,8.20
2023-12-13T13:58:30.822Z,8.20
2023-12-13T14:00:58.216Z,8.10
2023-12-13T14:03:25.307Z,8.20
2023-12-13T14:05:55.500Z,8.20
2023-12-13T14:08:22.556Z,8.20
2023-12-13T14:10:50.363Z,8.20
2023-12-13T14:13:17.265Z,8.20
2023-12-13T14:15:44.828Z,8.10
2023-12-13T14:18:11.884Z,8.00
2023-12-13T14:20:38.731Z,8.00
2023-12-13T14:23:06.780Z,7.90
2023-12-13T14:25:33.765Z,7.80
2023-12-13T14:28:00.642Z,7.70
2023-12-13T14:30:27.479Z,7.70
2023-12-13T14:32:54.726Z,7.60
2023-12-13T14:35:24.540Z,7.70
2023-12-13T14:37:54.298Z,7.70
2023-12-13T14:40:22.031Z,7.80
2023-12-13T14:42:50.044Z,7.70
2023-12-13T14:45:17.191Z,7.80
2023-12-13T14:47:44.306Z,7.80
2023-12-13T14:50:12.906Z,7.80
2023-12-13T14:52:41.544Z,7.80
2023-12-13T14:55:09.703Z,7.60
2023-12-13T14:57:37.883Z,7.60
2023-12-13T15:00:15.689Z,7.50
2023-12-13T15:02:44.120Z,7.50
2023-12-13T15:05:12.594Z,7.40
2023-12-13T15:07:44.050Z,7.40
2023-12-13T15:10:13.336Z,7.30
2023-12-13T15:12:40.564Z,7.30
2023-12-13T15:15:08.439Z,7.20
2023-12-13T15:17:36.056Z,7.20
2023-12-13T15:20:08.854Z,7.20
2023-12-13T15:22:35.855Z,7.20
2023-12-13T15:25:08.220Z,7.20
2023-12-13T15:27:39.554Z,7.20
2023-12-13T15:30:09.374Z,7.20
2023-12-13T15:32:36.368Z,7.30
2023-12-13T15:35:06.270Z,7.20
2023-12-13T15:37:33.651Z,7.30
2023-12-13T15:40:00.801Z,7.20
2023-12-13T15:42:28.275Z,7.20
2023-12-13T15:44:55.125Z,7.20
2023-12-13T15:47:21.962Z,7.20
2023-12-13T15:49:48.845Z,7.20
2023-12-13T15:52:15.812Z,7.10
2023-12-13T15:54:42.722Z,7.10
2023-12-13T15:57:09.567Z,7.00
2023-12-13T15:59:36.403Z,7.00
2023-12-13T16:02:05.535Z,7.00
2023-12-13T16:04:34.387Z,6.90
2023-12-13T16:07:02.117Z,6.90
2023-12-13T16:09:29.185Z,6.80
2023-12-13T16:11:56.173Z,6.80
2023-12-13T16:14:25.953Z,6.80
2023-12-13T16:16:53.892Z,6.80
2023-12-13T16:19:21.195Z,6.80
2023-12-13T16:21:48.241Z,6.90
2023-12-13T16:24:15.271Z,6.90
2023-12-13T16:26:42.162Z,7.00
2023-12-13T16:29:17.461Z,7.00
2023-12-13T16:31:49.557Z,7.00
2023-12-13T16:34:17.119Z,7.00
2023-12-13T16:36:46.337Z,7.00
2023-12-13T16:39:16.240Z,7.00
2023-12-13T16:41:43.118Z,7.00
2023-12-13T16:44:10.421Z,7.10
2023-12-13T16:46:37.388Z,7.10
2023-12-13T16:49:04.374Z,7.00
2023-12-13T16:51:31.311Z,7.10
2023-12-13T16:53:58.372Z,7.10
2023-12-13T16:56:25.643Z,7.10
2023-12-13T16:58:52.614Z,7.10
2023-12-13T17:01:19.664Z,7.20
2023-12-13T17:03:50.212Z,7.20
2023-12-13T17:06:18.661Z,7.20
2023-12-13T17:08:45.884Z,7.30
2023-12-13T17:11:14.857Z,7.30
2023-12-13T17:13:44.493Z,7.30
2023-12-13T17:16:11.450Z,7.30
2023-12-13T17:18:38.625Z,7.30
2023-12-13T17:21:05.661Z,7.30
2023-12-13T17:23:33.579Z,7.30
2023-12-13T17:26:00.568Z,7.30
2023-12-13T17:28:27.504Z,7.40
2023-12-13T17:30:54.493Z,7.30
2023-12-13T17:33:21.454Z,7.30
2023-12-13T17:35:50.389Z,7.30
2023-12-13T17:38:17.264Z,7.40
2023-12-13T17:40:44.431Z,7.40
2023-12-13T17:43:12.147Z,7.40
2023-12-13T17:45:40.981Z,7.40
2023-12-13T17:48:08.171Z,7.30
2023-12-13T17:50:35.156Z,7.40
2023-12-13T17:53:03.169Z,7.30
2023-12-13T17:55:30.102Z,7.30
2023-12-13T17:57:56.911Z,7.30
2023-12-13T18:00:29.301Z,7.30
2023-12-13T18:02:59.455Z,7.30
2023-12-13T18:05:26.488Z,7.30
2023-12-13T18:07:53.498Z,7.30
2023-12-13T18:10:22.490Z,7.30
2023-12-13T18:12:49.584Z,7.30
2023-12-13T18:15:16.434Z,7.20
2023-12-13T18:17:43.858Z,7.00
2023-12-13T18:20:11.436Z,6.90
2023-12-13T18:22:39.248Z,6.80
2023-12-13T18:25:07.237Z,6.70
2023-12-13T18:27:34.121Z,6.60
2023-12-13T18:30:00.931Z,6.50
2023-12-13T18:32:27.749Z,6.50
2023-12-13T18:34:54.715Z,6.50
2023-12-13T18:37:21.592Z,6.50
2023-12-13T18:39:48.461Z,6.60
2023-12-13T18:42:15.230Z,6.70
2023-12-13T18:44:42.480Z,6.70
2023-12-13T18:47:09.329Z,6.80
2023-12-13T18:49:36.220Z,6.80
2023-12-13T18:52:03.090Z,6.80
2023-12-13T18:54:30.709Z,6.80
2023-12-13T18:56:57.656Z,6.80
2023-12-13T18:59:24.541Z,6.80
2023-12-13T19:01:54.388Z,6.80
2023-12-13T19:04:21.362Z,6.80
2023-12-13T19:06:48.818Z,6.70
2023-12-13T19:09:16.273Z,6.70
2023-12-13T19:11:43.133Z,6.60
2023-12-13T19:14:10.417Z,6.60
2023-12-13T19:16:40.731Z,6.50
2023-12-13T19:19:08.324Z,6.40
2023-12-13T19:21:35.811Z,6.40
2023-12-13T19:24:02.647Z,6.30
2023-12-13T19:26:29.454Z,6.40
2023-12-13T19:29:03.907Z,6.40
2023-12-13T19:31:32.540Z,6.40
2023-12-13T19:33:59.723Z,6.40
2023-12-13T19:36:26.954Z,6.40
2023-12-13T19:38:53.824Z,6.50
2023-12-13T19:41:20.641Z,6.40
2023-12-13T19:43:47.482Z,6.30
2023-12-13T19:46:14.430Z,6.20
2023-12-13T19:48:41.608Z,6.20
2023-12-13T19:51:08.546Z,6.10
2023-12-13T19:53:35.401Z,6.20
2023-12-13T19:56:02.302Z,6.30
2023-12-13T19:58:29.208Z,6.30
2023-12-13T20:00:56.116Z,6.30
2023-12-13T20:03:23.084Z,6.40
2023-12-13T20:05:49.973Z,6.40
2023-12-13T20:08:16.988Z,6.50
2023-12-13T20:10:44.487Z,6.50
2023-12-13T20:13:11.374Z,6.50
2023-12-13T20:15:38.162Z,6.50
2023-12-13T20:18:05.184Z,6.60
2023-12-13T20:20:32.050Z,6.60
2023-12-13T20:22:58.940Z,6.50
2023-12-13T20:25:30.545Z,6.60
2023-12-13T20:27:58.293Z,6.50
2023-12-13T20:30:25.608Z,6.50
2023-12-13T20:32:52.640Z,6.40
2023-12-13T20:35:19.481Z,6.40
2023-12-13T20:37:46.342Z,6.50
2023-12-13T20:40:13.453Z,6.50
2023-12-13T20:42:43.620Z,6.50
2023-12-13T20:45:13.266Z,6.50
2023-12-13T20:47:42.262Z,6.50
2023-12-13T20:50:12.911Z,6.50
2023-12-13T20:52:40.307Z,6.50
2023-12-13T20:55:07.704Z,6.60
2023-12-13T20:57:34.832Z,6.50
2023-12-13T21:00:01.977Z,6.50
2023-12-13T21:02:28.869Z,6.50
2023-12-13T21:04:56.335Z,6.50
2023-12-13T21:07:23.403Z,6.50
2023-12-13T21:09:50.482Z,6.40
2023-12-13T21:12:17.274Z,6.30
2023-12-13T21:14:44.100Z,6.30
2023-12-13T21:17:11.062Z,6.30
2023-12-13T21:19:37.937Z,6.30
2023-12-13T21:22:05.009Z,6.30
2023-12-13T21:24:32.040Z,6.30
2023-12-13T21:26:58.955Z,6.30
2023-12-13T21:29:25.775Z,6.30
2023-12-13T21:31:52.655Z,6.30
2023-12-13T21:34:19.691Z,6.40
2023-12-13T21:36:46.863Z,6.50
2023-12-13T21:39:14.309Z,6.50
2023-12-13T21:41:41.816Z,6.50
2023-12-13T21:44:08.901Z,6.50
2023-12-13T21:46:35.866Z,6.50
2023-12-13T21:49:02.787Z,6.40
2023-12-13T21:51:29.660Z,6.40
2023-12-13T21:53:56.568Z,6.30
2023-12-13T21:56:23.533Z,6.30
2023-12-13T21:58:50.394Z,6.30
2023-12-13T22:01:18.087Z,6.20
2023-12-13T22:03:45.072Z,6.30
2023-12-13T22:06:11.985Z,6.30
2023-12-13T22:08:40.250Z,6.30
2023-12-13T22:11:09.036Z,6.30
2023-12-13T22:13:37.633Z,6.20
2023-12-13T22:16:04.976Z,6.20
2023-12-13T22:18:41.339Z,6.20
2023-12-13T22:21:09.508Z,6.20
2023-12-13T22:23:47.223Z,6.20
2023-12-13T22:26:18.089Z,6.10
2023-12-13T22:28:45.143Z,6.00
2023-12-13T22:31:11.968Z,5.90
2023-12-13T22:33:38.873Z,5.90
2023-12-13T22:36:06.255Z,5.80
2023-12-13T22:38:33.075Z,5.90
2023-12-13T22:40:59.944Z,5.90
2023-12-13T22:43:27.672Z,6.00
2023-12-13T22:45:54.543Z,6.00
2023-12-13T22:48:21.429Z,6.00
2023-12-13T22:50:48.308Z,6.00
2023-12-13T22:53:15.870Z,6.10
2023-12-13T22:55:42.919Z,6.10
2023-12-13T22:58:09.805Z,6.20
2023-12-13T23:00:37.448Z,6.20
2023-12-13T23:03:05.346Z,6.20
2023-12-13T23:05:32.643Z,6.20
2023-12-13T23:07:59.807Z,6.20
2023-12-13T23:10:26.733Z,6.10
2023-12-13T23:12:54.719Z,6.10
2023-12-13T23:15:21.601Z,6.00
2023-12-13T23:17:49.183Z,5.90
2023-12-13T23:20:16.641Z,5.90
2023-12-13T23:22:43.542Z,5.80
2023-12-13T23:25:10.517Z,5.80
2023-12-13T23:27:37.341Z,5.70
2023-12-13T23:30:04.572Z,5.70
2023-12-13T23:32:31.901Z,5.80
2023-12-13T23:34:58.887Z,5.90
2023-12-13T23:37:25.737Z,5.90
2023-12-13T23:39:52.550Z,6.00
2023-12-13T23:42:19.436Z,5.90
2023-12-13T23:44:46.400Z,5.90
2023-12-13T23:47:13.326Z,5.90
2023-12-13T23:49:40.258Z,5.90
2023-12-13T23:52:07.127Z,5.80
2023-12-13T23:54:35.201Z,5.70
2023-12-13T23:57:02.005Z,5.50
2023-12-13T23:59:28.875Z,5.40
